Brook Park, Minnesota
Current Conditions -  °F | °C
As of 6:04 PM on Friday 31 Oct 2014 (Local Time) from K04W Reporting Station
Clear Clear  
Wind Chill: 36°   Ceiling: Unl
Heat Index: 36°   Visibility: 10mi
Dew Point: 16°   Wind: 0mph
Humidity: 44%   Direction: NA
Pressure: 30.49"   Gusts: NA
Location:  45.95°N, 93.08°W
Report Text: K04W 312304Z AUTO 00000KT 10SM CLR 02/M09 A3049 RMK AO2
Loading
Personal Weather Stations






























Interactive Weather Map
Tropical Storm Tracking
New forecast layout! Learn more

10-Day Weather Forecast

Advertisements
Track Severe Weather on mobile